Time;durP1;ratioP1;P1;durP2;ratioP2;P2;SDS_P1;SDS_P2;PMS_P1;PMS_P2;Temp;Humidity;BMP_temperature;BMP_pressure;BME280_temperature;BME280_humidity;BME280_pressure;Samples;Min_cycle;Max_cycle;Signal;HPM_P1;HPM_P2
2022/07/15 00:02:12;;;;;;;4.10;1.90;;;17.90;76.10;;;;;;5071719;28;20436;-50
2022/07/15 00:04:40;;;;;;;2.90;1.60;;;17.40;75.70;;;;;;5070593;28;20469;-49
2022/07/15 00:07:07;;;;;;;2.37;1.30;;;17.30;76.00;;;;;;5071806;28;20782;-49
2022/07/15 00:12:18;;;;;;;4.00;1.47;;;17.10;76.30;;;;;;5071624;28;20508;-48
2022/07/15 00:14:45;;;;;;;4.03;1.40;;;17.00;76.30;;;;;;5071394;28;20446;-48
2022/07/15 00:17:11;;;;;;;2.93;1.37;;;17.10;76.80;;;;;;5071552;28;20425;-50
2022/07/15 00:19:39;;;;;;;3.63;1.50;;;17.20;76.80;;;;;;5071125;28;20803;-49
2022/07/15 00:22:07;;;;;;;2.70;1.27;;;17.20;77.00;;;;;;5071175;28;20429;-50
2022/07/15 00:24:33;;;;;;;5.30;1.50;;;17.20;77.40;;;;;;5071485;28;20561;-48
2022/07/15 00:27:02;;;;;;;6.10;1.60;;;17.40;77.90;;;;;;5071399;28;20448;-50
2022/07/15 00:29:28;;;;;;;5.60;1.37;;;17.00;77.50;;;;;;5071103;28;20482;-49
2022/07/15 00:31:55;;;;;;;3.83;1.40;;;17.00;77.50;;;;;;5071301;28;20512;-49
2022/07/15 00:34:22;;;;;;;2.70;1.50;;;17.00;77.80;;;;;;5071609;28;20532;-50
2022/07/15 00:36:50;;;;;;;4.10;1.50;;;17.00;77.80;;;;;;5070078;28;20827;-50
2022/07/15 00:39:17;;;;;;;4.80;1.30;;;17.10;78.00;;;;;;5071075;28;20434;-49
2022/07/15 00:41:44;;;;;;;4.10;1.40;;;16.90;78.20;;;;;;5069914;28;20442;-48
2022/07/15 00:44:11;;;;;;;3.00;1.40;;;16.90;78.20;;;;;;5069840;28;20460;-49
2022/07/15 00:46:38;;;;;;;6.40;1.30;;;16.80;78.20;;;;;;5082022;22;20886;-46
2022/07/15 00:49:07;;;;;;;3.23;1.43;;;16.80;78.60;;;;;;5048544;28;20474;-47
2022/07/15 00:51:36;;;;;;;4.60;1.40;;;16.80;78.30;;;;;;5050362;28;20516;-47
2022/07/15 00:54:05;;;;;;;2.93;1.60;;;16.90;78.90;;;;;;5050281;28;20508;-47
2022/07/15 00:56:37;;;;;;;5.07;1.50;;;16.80;78.60;;;;;;5050358;28;20476;-47
2022/07/15 00:59:06;;;;;;;6.63;2.77;;;16.70;78.80;;;;;;5050089;28;20438;-47
2022/07/15 01:01:33;;;;;;;3.53;1.40;;;16.70;78.80;;;;;;5048656;28;20458;-47
2022/07/15 01:04:02;;;;;;;4.50;1.30;;;16.60;79.00;;;;;;5050126;28;20434;-49
2022/07/15 01:06:29;;;;;;;4.73;1.87;;;16.70;79.30;;;;;;5051540;28;20529;-46
2022/07/15 01:08:55;;;;;;;6.20;1.77;;;16.40;79.10;;;;;;5052281;28;20481;-47
2022/07/15 01:11:24;;;;;;;4.10;1.40;;;16.50;79.80;;;;;;5052992;28;20761;-47
2022/07/15 01:13:51;;;;;;;4.23;1.40;;;16.50;79.80;;;;;;5052443;28;20484;-48
2022/07/15 01:16:19;;;;;;;4.17;2.43;;;16.50;80.40;;;;;;5052175;28;20520;-47
2022/07/15 01:18:45;;;;;;;3.67;1.60;;;16.20;80.50;;;;;;5052140;28;20508;-49
2022/07/15 01:21:14;;;;;;;2.80;1.53;;;16.10;80.40;;;;;;5052514;28;20442;-47
2022/07/15 01:23:42;;;;;;;2.60;1.30;;;16.40;81.10;;;;;;5052353;28;20446;-47
2022/07/15 01:26:15;;;;;;;5.27;1.77;;;15.90;81.40;;;;;;5052524;28;20549;-47
2022/07/15 01:28:44;;;;;;;6.90;3.20;;;16.30;82.20;;;;;;5051621;28;20470;-47
2022/07/15 01:31:12;;;;;;;4.43;1.70;;;16.20;82.20;;;;;;5051733;28;20938;-47
2022/07/15 01:33:38;;;;;;;6.93;1.37;;;16.10;82.50;;;;;;5051879;28;20457;-46
2022/07/15 01:36:06;;;;;;;3.60;1.80;;;16.40;83.30;;;;;;5053201;28;20981;-47
2022/07/15 01:38:36;;;;;;;7.30;1.60;;;16.20;83.60;;;;;;5051711;28;20673;-47
2022/07/15 01:41:04;;;;;;;3.97;1.37;;;16.00;83.80;;;;;;5052387;28;20806;-47
2022/07/15 01:43:30;;;;;;;4.60;1.63;;;16.00;84.40;;;;;;5053340;28;20435;-48
2022/07/15 01:45:57;;;;;;;3.73;1.63;;;16.00;84.80;;;;;;5051860;28;20994;-47
2022/07/15 01:51:35;;;;;;;4.23;1.63;;;16.00;84.90;;;;;;5046024;28;20525;-49
2022/07/15 01:54:03;;;;;;;7.13;2.37;;;16.00;84.90;;;;;;5052160;28;20489;-48
2022/07/15 01:56:30;;;;;;;4.63;1.60;;;15.70;85.00;;;;;;5051899;28;20557;-48
2022/07/15 01:58:57;;;;;;;5.77;1.60;;;15.90;85.20;;;;;;5051335;28;20813;-48
2022/07/15 02:01:24;;;;;;;7.73;2.07;;;15.90;85.00;;;;;;5051668;28;20865;-47
2022/07/15 02:03:51;;;;;;;3.80;1.60;;;16.20;86.30;;;;;;5051492;28;20505;-46
2022/07/15 02:06:18;;;;;;;12.80;2.70;;;15.90;86.20;;;;;;5051785;28;20483;-47
2022/07/15 02:08:45;;;;;;;6.37;1.97;;;15.30;84.80;;;;;;5051017;28;20561;-47
2022/07/15 02:11:15;;;;;;;5.10;2.00;;;15.80;85.20;;;;;;5051299;28;20446;-47
2022/07/15 02:13:45;;;;;;;3.77;1.63;;;15.80;85.70;;;;;;5051385;28;20841;-47
2022/07/15 02:16:12;;;;;;;8.13;2.37;;;15.70;85.70;;;;;;5050743;28;20585;-47
2022/07/15 02:18:39;;;;;;;5.17;1.67;;;15.50;85.50;;;;;;5051038;28;21009;-48
2022/07/15 02:21:06;;;;;;;7.93;2.23;;;15.70;85.90;;;;;;5051342;28;20612;-47
2022/07/15 02:23:33;;;;;;;4.67;1.30;;;15.60;85.80;;;;;;5051365;28;20450;-47
2022/07/15 02:26:00;;;;;;;9.00;2.00;;;15.40;85.50;;;;;;5050920;28;20502;-47
2022/07/15 02:28:31;;;;;;;4.20;2.00;;;15.70;86.00;;;;;;5050703;28;20478;-46
2022/07/15 02:30:58;;;;;;;9.07;2.50;;;15.60;85.90;;;;;;5051139;28;20446;-47
2022/07/15 02:33:24;;;;;;;5.80;2.10;;;15.60;86.00;;;;;;5050894;28;20561;-47
2022/07/15 02:35:51;;;;;;;4.50;2.10;;;15.40;86.20;;;;;;5050801;28;20466;-47
2022/07/15 02:38:19;;;;;;;4.77;1.80;;;15.40;86.20;;;;;;5051052;28;20512;-48
2022/07/15 02:40:48;;;;;;;8.83;2.63;;;15.60;86.30;;;;;;5050924;28;20980;-48
2022/07/15 02:43:16;;;;;;;5.30;1.43;;;15.50;86.40;;;;;;5051079;28;21049;-47
2022/07/15 02:45:46;;;;;;;6.43;1.90;;;15.50;86.70;;;;;;5050783;28;20558;-48
2022/07/15 02:48:16;;;;;;;5.00;2.43;;;15.50;87.10;;;;;;5051188;28;20892;-48
2022/07/15 02:50:46;;;;;;;5.87;1.80;;;15.50;87.00;;;;;;5050495;28;20548;-48
2022/07/15 02:53:14;;;;;;;6.07;2.17;;;15.40;86.80;;;;;;5050685;28;20451;-47
2022/07/15 02:55:42;;;;;;;7.27;2.00;;;15.60;87.40;;;;;;5050772;28;20790;-47
2022/07/15 02:58:08;;;;;;;4.50;2.30;;;15.40;87.50;;;;;;5051963;28;20449;-48
2022/07/15 03:00:37;;;;;;;6.17;1.97;;;15.40;87.70;;;;;;5050071;28;20499;-48
2022/07/15 03:03:05;;;;;;;6.57;2.33;;;15.40;87.80;;;;;;5050371;28;20819;-47
2022/07/15 03:05:36;;;;;;;7.87;2.10;;;15.60;88.40;;;;;;5050412;28;20471;-47
2022/07/15 03:08:03;;;;;;;10.07;2.73;;;15.30;88.30;;;;;;5050368;28;20506;-48
2022/07/15 03:10:29;;;;;;;10.80;2.23;;;15.40;88.50;;;;;;5050111;28;20477;-48
2022/07/15 03:12:56;;;;;;;7.50;2.03;;;15.30;88.50;;;;;;5051516;28;20433;-47
2022/07/15 03:15:23;;;;;;;5.73;1.70;;;15.30;88.80;;;;;;5051612;28;20437;-48
2022/07/15 03:17:49;;;;;;;5.93;1.80;;;15.00;88.70;;;;;;5050853;28;20433;-48
2022/07/15 03:20:18;;;;;;;8.73;2.63;;;15.30;89.20;;;;;;5050025;28;20450;-47
2022/07/15 03:22:48;;;;;;;7.97;2.40;;;15.50;89.60;;;;;;5050494;28;20458;-47
2022/07/15 03:25:14;;;;;;;5.30;1.87;;;15.30;89.40;;;;;;5049732;28;20454;-47
2022/07/15 03:27:42;;;;;;;5.20;2.33;;;15.30;89.40;;;;;;5049532;28;20453;-48
2022/07/15 03:30:11;;;;;;;10.70;2.27;;;15.20;89.50;;;;;;5049263;28;20989;-49
2022/07/15 03:32:38;;;;;;;8.60;1.83;;;15.30;90.00;;;;;;5049563;28;20489;-48
2022/07/15 03:35:06;;;;;;;10.17;2.90;;;15.30;90.20;;;;;;5049940;28;20794;-48
2022/07/15 03:37:37;;;;;;;10.13;2.17;;;15.30;90.20;;;;;;5049650;28;20437;-46
2022/07/15 03:40:05;;;;;;;11.90;2.37;;;15.20;90.20;;;;;;5049358;28;20845;-47
2022/07/15 03:42:35;;;;;;;12.20;2.60;;;15.30;90.30;;;;;;5050225;28;20503;-47
2022/07/15 03:45:01;;;;;;;7.70;2.47;;;15.30;90.30;;;;;;5049228;28;20453;-48
2022/07/15 03:47:30;;;;;;;5.90;1.60;;;15.50;90.50;;;;;;5051173;28;20471;-48
2022/07/15 03:49:56;;;;;;;8.57;2.20;;;15.20;90.30;;;;;;5049110;28;20481;-48
2022/07/15 03:52:23;;;;;;;10.17;2.10;;;15.30;90.40;;;;;;5051120;28;20952;-47
2022/07/15 03:54:51;;;;;;;12.00;2.27;;;15.40;90.40;;;;;;5049690;28;20449;-47
2022/07/15 03:57:18;;;;;;;9.17;1.90;;;15.40;90.40;;;;;;5050903;28;20450;-47
2022/07/15 03:59:47;;;;;;;9.23;2.20;;;15.30;90.40;;;;;;5049000;28;20455;-47
2022/07/15 04:02:13;;;;;;;8.00;2.10;;;15.20;90.30;;;;;;5051147;28;20473;-47
2022/07/15 04:04:40;;;;;;;6.67;1.83;;;15.60;90.50;;;;;;5049802;28;20450;-48
2022/07/15 04:07:07;;;;;;;7.40;1.90;;;15.70;90.30;;;;;;5051302;28;20489;-48
2022/07/15 04:09:33;;;;;;;5.57;1.80;;;15.90;90.30;;;;;;5049408;28;20475;-49
2022/07/15 04:12:01;;;;;;;6.50;2.20;;;16.00;90.00;;;;;;5050628;28;20434;-48
2022/07/15 04:14:29;;;;;;;8.33;2.60;;;15.90;89.40;;;;;;5049663;28;20466;-49
2022/07/15 04:16:56;;;;;;;13.30;2.73;;;16.50;89.40;;;;;;5049647;28;20462;-49
2022/07/15 04:19:32;;;;;;;8.40;2.53;;;16.30;88.60;;;;;;5048931;28;20483;-49
2022/07/15 04:22:01;;;;;;;6.20;1.90;;;16.60;88.50;;;;;;5049535;28;20494;-49
2022/07/15 04:24:31;;;;;;;9.20;2.33;;;16.40;87.70;;;;;;5049526;28;20472;-47
2022/07/15 04:26:58;;;;;;;4.53;2.43;;;16.80;87.80;;;;;;5050966;28;20519;-48
2022/07/15 04:29:26;;;;;;;6.30;2.13;;;16.90;87.50;;;;;;5049043;28;21032;-48
2022/07/15 04:31:52;;;;;;;9.23;2.60;;;16.80;87.20;;;;;;5050819;28;20474;-49
2022/07/15 04:34:27;;;;;;;19.83;2.80;;;16.80;87.30;;;;;;5049108;28;20478;-48
2022/07/15 04:36:53;;;;;;;9.23;2.40;;;16.80;87.50;;;;;;5048842;28;20477;-48
2022/07/15 04:39:20;;;;;;;10.40;1.83;;;16.80;87.50;;;;;;5049511;28;20457;-47
2022/07/15 04:41:47;;;;;;;7.57;2.40;;;16.60;87.20;;;;;;5053146;28;20450;-48
2022/07/15 04:44:14;;;;;;;7.57;2.33;;;17.00;87.70;;;;;;5052945;28;20474;-47
2022/07/15 04:46:42;;;;;;;8.53;2.20;;;16.70;87.70;;;;;;5052823;28;20498;-48
2022/07/15 04:52:13;;;;;;;6.37;2.63;;;16.90;87.70;;;;;;5054406;28;20425;-48
2022/07/15 04:54:43;;;;;;;5.40;2.37;;;17.00;87.50;;;;;;5052560;28;20522;-48
2022/07/15 04:57:11;;;;;;;10.43;2.13;;;17.10;87.30;;;;;;5052754;28;20468;-48
2022/07/15 04:59:38;;;;;;;7.63;2.23;;;17.10;86.80;;;;;;5053732;28;20947;-48
2022/07/15 05:02:09;;;;;;;10.50;2.30;;;17.30;86.40;;;;;;5052262;28;20450;-48
2022/07/15 05:04:39;;;;;;;5.93;1.90;;;17.40;86.00;;;;;;5052379;28;20501;-48
2022/07/15 05:07:09;;;;;;;7.07;2.00;;;17.30;85.60;;;;;;5052432;28;20688;-48
2022/07/15 05:09:37;;;;;;;6.87;2.47;;;17.70;85.70;;;;;;5052241;28;20812;-47
2022/07/15 05:12:05;;;;;;;9.30;3.33;;;17.40;85.10;;;;;;5054187;28;20443;-48
2022/07/15 05:14:40;;;;;;;8.70;2.40;;;17.60;85.00;;;;;;5052704;28;20790;-49
2022/07/15 05:17:08;;;;;;;6.30;2.23;;;17.60;84.80;;;;;;5053534;28;20472;-47
2022/07/15 05:19:35;;;;;;;8.17;1.83;;;18.00;85.10;;;;;;5051806;28;20577;-48
2022/07/15 05:22:02;;;;;;;8.93;3.17;;;17.70;84.40;;;;;;5052413;28;20486;-48
2022/07/15 05:24:31;;;;;;;12.53;2.43;;;17.40;84.10;;;;;;5052198;28;20677;-47
2022/07/15 05:27:00;;;;;;;8.23;2.03;;;17.80;84.20;;;;;;5052049;28;20858;-47
2022/07/15 05:29:31;;;;;;;11.83;2.30;;;18.00;83.90;;;;;;5051817;28;20565;-48
2022/07/15 05:31:58;;;;;;;6.97;2.00;;;17.80;83.10;;;;;;5051907;28;20448;-48
2022/07/15 05:34:27;;;;;;;9.87;2.70;;;17.90;83.20;;;;;;5052179;28;20482;-49
2022/07/15 05:36:54;;;;;;;6.50;2.30;;;17.90;82.90;;;;;;5052116;28;20473;-48
2022/07/15 05:39:23;;;;;;;5.20;1.93;;;18.00;82.80;;;;;;5051795;28;20449;-48
2022/07/15 05:41:53;;;;;;;6.40;1.60;;;18.60;83.20;;;;;;5051818;28;20895;-48
2022/07/15 05:44:19;;;;;;;8.20;2.63;;;18.30;82.60;;;;;;5051860;28;20463;-47
2022/07/15 05:46:50;;;;;;;6.03;1.90;;;18.40;82.50;;;;;;5051976;28;20484;-48
2022/07/15 05:49:17;;;;;;;10.37;2.10;;;18.40;81.90;;;;;;5051493;28;20546;-48
2022/07/15 05:51:45;;;;;;;7.97;2.00;;;18.50;81.70;;;;;;5051108;28;20566;-48
2022/07/15 05:54:14;;;;;;;8.87;2.30;;;18.50;81.20;;;;;;5051604;28;20831;-47
2022/07/15 05:56:42;;;;;;;7.80;2.10;;;18.60;81.10;;;;;;5051566;28;20568;-48
2022/07/15 05:59:12;;;;;;;7.00;2.10;;;18.60;80.70;;;;;;5051565;28;20511;-48
2022/07/15 06:01:39;;;;;;;5.70;1.80;;;18.80;80.30;;;;;;5051850;28;20453;-48
2022/07/15 06:04:06;;;;;;;5.53;1.57;;;18.90;79.50;;;;;;5051784;28;20448;-48
2022/07/15 06:06:34;;;;;;;5.33;1.80;;;19.10;79.10;;;;;;5051825;28;20580;-47
2022/07/15 06:09:03;;;;;;;4.37;1.70;;;19.00;78.40;;;;;;5050995;28;20569;-48
2022/07/15 06:11:29;;;;;;;8.50;1.70;;;19.10;77.50;;;;;;5052669;28;20484;-48
2022/07/15 06:13:58;;;;;;;13.87;2.30;;;19.20;76.60;;;;;;5051021;28;20499;-49
2022/07/15 06:16:24;;;;;;;3.73;1.87;;;19.10;76.40;;;;;;5051182;28;20464;-48
2022/07/15 06:18:51;;;;;;;4.43;1.87;;;19.40;76.20;;;;;;5050643;28;20456;-49
2022/07/15 06:21:19;;;;;;;6.07;2.03;;;19.70;76.30;;;;;;5050989;28;20457;-48
2022/07/15 06:23:45;;;;;;;6.80;1.97;;;19.40;75.80;;;;;;5050854;28;20489;-48
2022/07/15 06:26:13;;;;;;;9.30;1.83;;;19.40;75.70;;;;;;5052504;28;20637;-48
2022/07/15 06:28:42;;;;;;;7.27;1.40;;;19.40;75.80;;;;;;5050518;28;20454;-47
2022/07/15 06:31:08;;;;;;;5.30;2.10;;;19.60;75.50;;;;;;5052270;28;20508;-48
2022/07/15 06:33:35;;;;;;;6.97;1.40;;;19.70;75.00;;;;;;5050678;28;20442;-48
2022/07/15 06:36:02;;;;;;;7.27;2.53;;;19.80;74.80;;;;;;5051814;28;20454;-49
2022/07/15 06:38:28;;;;;;;5.70;2.13;;;19.90;74.60;;;;;;5051111;28;20592;-49
2022/07/15 06:40:56;;;;;;;4.93;1.63;;;20.00;74.20;;;;;;5050891;28;20903;-49
2022/07/15 06:43:24;;;;;;;6.03;2.00;;;20.10;74.10;;;;;;5052016;28;20647;-48
2022/07/15 06:46:08;;;;;;;4.23;1.90;;;19.90;73.70;;;;;;5065606;22;20524;-50
2022/07/15 06:48:38;;;;;;;5.20;1.57;;;20.00;73.50;;;;;;5034702;28;20539;-49
2022/07/15 06:51:05;;;;;;;4.87;1.37;;;20.00;73.70;;;;;;5052512;28;20478;-49
2022/07/15 06:53:32;;;;;;;4.20;1.70;;;20.00;73.90;;;;;;5034204;28;20446;-49
2022/07/15 06:55:59;;;;;;;7.00;1.53;;;20.10;73.70;;;;;;5034577;28;20474;-50
2022/07/15 06:58:27;;;;;;;3.67;1.37;;;20.10;73.50;;;;;;5051875;28;20434;-51
2022/07/15 07:00:53;;;;;;;4.83;1.97;;;20.00;73.10;;;;;;5034505;28;20804;-51
2022/07/15 07:03:20;;;;;;;8.60;1.67;;;20.10;73.30;;;;;;5051351;28;20432;-49
2022/07/15 07:05:47;;;;;;;11.13;2.23;;;19.50;72.60;;;;;;5034355;28;20463;-50
2022/07/15 07:08:14;;;;;;;5.83;1.73;;;20.10;73.10;;;;;;5034445;28;20454;-50
2022/07/15 07:10:41;;;;;;;5.07;1.40;;;20.20;72.80;;;;;;5034126;28;20466;-49
2022/07/15 07:13:08;;;;;;;9.17;2.00;;;20.30;72.40;;;;;;5034192;28;20457;-50
2022/07/15 07:15:36;;;;;;;5.07;1.53;;;20.40;72.40;;;;;;5052262;28;20920;-50
2022/07/15 07:18:03;;;;;;;5.13;1.60;;;20.50;71.10;;;;;;5052327;28;20926;-50
2022/07/15 07:20:30;;;;;;;5.03;1.60;;;20.50;70.20;;;;;;5033732;28;20805;-51
2022/07/15 07:22:57;;;;;;;4.33;1.33;;;20.50;70.20;;;;;;5051748;28;20431;-48
2022/07/15 07:25:23;;;;;;;5.60;1.40;;;20.80;70.60;;;;;;5051485;28;20448;-49
2022/07/15 07:27:50;;;;;;;6.43;1.47;;;20.70;70.20;;;;;;5051887;28;20466;-50
2022/07/15 07:30:17;;;;;;;9.30;1.70;;;20.60;69.90;;;;;;5051429;28;20565;-49
2022/07/15 07:32:45;;;;;;;4.93;1.57;;;20.60;69.90;;;;;;5051248;28;20927;-48
2022/07/15 07:35:12;;;;;;;9.57;1.60;;;20.80;69.60;;;;;;5033890;28;20993;-49
2022/07/15 07:37:40;;;;;;;4.27;1.30;;;20.60;69.20;;;;;;5051550;28;21000;-49
2022/07/15 07:40:08;;;;;;;6.77;1.63;;;20.60;69.40;;;;;;5033304;28;20435;-50
2022/07/15 07:42:35;;;;;;;4.23;1.73;;;20.70;69.60;;;;;;5051456;28;20522;-49
2022/07/15 07:45:02;;;;;;;9.40;4.90;;;20.50;69.50;;;;;;5051701;28;20437;-48
2022/07/15 07:47:29;;;;;;;7.80;1.77;;;20.60;69.30;;;;;;5051359;28;20469;-50
2022/07/15 07:49:56;;;;;;;5.90;1.87;;;20.50;69.00;;;;;;5050981;28;20471;-49
2022/07/15 07:52:23;;;;;;;5.73;1.37;;;20.60;69.00;;;;;;5051604;28;20798;-49
2022/07/15 07:54:50;;;;;;;4.47;1.60;;;20.90;69.20;;;;;;5051240;28;20435;-48
2022/07/15 07:57:17;;;;;;;4.37;1.23;;;20.90;68.40;;;;;;5050947;28;20467;-49
2022/07/15 07:59:43;;;;;;;7.80;1.87;;;20.80;67.50;;;;;;5051200;28;20448;-49
2022/07/15 08:02:10;;;;;;;3.83;1.30;;;20.90;67.40;;;;;;5051359;28;20962;-50
2022/07/15 08:04:38;;;;;;;7.67;1.73;;;20.80;66.40;;;;;;5051585;28;20442;-51
2022/07/15 08:07:06;;;;;;;6.10;1.60;;;20.90;66.20;;;;;;5051382;28;20453;-50
2022/07/15 08:09:32;;;;;;;3.70;0.83;;;20.70;66.10;;;;;;5051858;28;20491;-50
2022/07/15 08:11:59;;;;;;;5.60;1.73;;;20.80;66.30;;;;;;5050906;28;20486;-50
2022/07/15 08:14:27;;;;;;;5.30;1.40;;;20.70;65.60;;;;;;5051008;28;20464;-50
2022/07/15 08:16:54;;;;;;;7.97;1.30;;;20.70;64.60;;;;;;5051069;28;20859;-50
2022/07/15 08:19:21;;;;;;;3.57;1.63;;;20.80;63.70;;;;;;5050641;28;20441;-50
2022/07/15 08:21:47;;;;;;;8.33;1.67;;;20.80;63.00;;;;;;5052683;28;20467;-50
2022/07/15 08:24:15;;;;;;;3.17;1.17;;;20.70;62.90;;;;;;5051210;28;20431;-50
2022/07/15 08:26:42;;;;;;;4.10;1.40;;;20.80;63.30;;;;;;5050740;28;20788;-50
2022/07/15 08:29:08;;;;;;;6.40;1.80;;;20.80;62.40;;;;;;5052024;28;20430;-50
2022/07/15 08:31:37;;;;;;;3.70;1.13;;;20.80;62.20;;;;;;5051167;28;20655;-50
2022/07/15 08:34:05;;;;;;;4.10;1.23;;;20.80;61.80;;;;;;5051249;28;20913;-50
2022/07/15 08:36:32;;;;;;;4.50;1.23;;;20.70;61.80;;;;;;5050769;28;20455;-51
2022/07/15 08:38:58;;;;;;;3.90;1.17;;;20.90;61.30;;;;;;5051070;28;20443;-51
2022/07/15 08:41:26;;;;;;;4.13;1.40;;;20.40;60.40;;;;;;5051038;28;20435;-51
2022/07/15 08:43:53;;;;;;;4.27;1.60;;;21.00;60.50;;;;;;5051240;28;20436;-50
2022/07/15 08:46:20;;;;;;;5.40;1.97;;;21.00;60.60;;;;;;5050714;28;20979;-50
2022/07/15 08:48:50;;;;;;;7.37;1.33;;;21.20;60.30;;;;;;5050602;28;20433;-50
2022/07/15 08:51:22;;;;;;;9.17;1.40;;;21.10;59.70;;;;;;5051031;28;20562;-50
2022/07/15 08:53:48;;;;;;;4.03;1.77;;;21.20;59.90;;;;;;5050775;28;20436;-50
2022/07/15 08:56:18;;;;;;;5.30;1.30;;;21.10;59.80;;;;;;5051164;28;20808;-51
2022/07/15 08:58:46;;;;;;;5.80;2.10;;;21.30;59.50;;;;;;5032792;28;20597;-50
2022/07/15 09:01:13;;;;;;;4.70;1.67;;;20.80;59.30;;;;;;5050916;28;20490;-49
2022/07/15 09:03:40;;;;;;;6.47;1.33;;;21.30;59.70;;;;;;5051010;28;20799;-50
2022/07/15 09:06:06;;;;;;;4.57;1.40;;;21.80;59.80;;;;;;5050486;28;20474;-50
2022/07/15 09:08:34;;;;;;;3.93;1.10;;;21.50;59.30;;;;;;5050601;28;20433;-50
2022/07/15 09:11:01;;;;;;;3.70;1.10;;;21.40;59.10;;;;;;5050878;28;20480;-49
2022/07/15 09:13:31;;;;;;;6.47;1.40;;;21.40;59.10;;;;;;5050627;28;20461;-50
2022/07/15 09:16:01;;;;;;;9.67;1.30;;;21.50;59.50;;;;;;5050562;28;20456;-50
2022/07/15 09:18:29;;;;;;;4.60;1.70;;;21.60;59.60;;;;;;5050407;28;20440;-50
2022/07/15 09:20:57;;;;;;;6.40;1.53;;;21.70;59.30;;;;;;5050562;28;20429;-49
2022/07/15 09:23:30;;;;;;;4.87;1.70;;;21.90;59.20;;;;;;5051027;28;20437;-49
2022/07/15 09:25:58;;;;;;;3.50;1.20;;;21.80;59.10;;;;;;5051087;28;20465;-49
2022/07/15 09:28:38;;;;;;;8.00;1.60;;;21.80;59.30;;;;;;5054407;28;20429;-49
2022/07/15 09:33:51;;;;;;;3.50;1.30;;;21.80;58.90;;;;;;5054219;28;20428;-50
2022/07/15 09:36:21;;;;;;;4.87;1.37;;;21.50;59.40;;;;;;5053806;28;20460;-49
2022/07/15 09:38:49;;;;;;;3.70;1.30;;;21.50;59.20;;;;;;5054232;28;20549;-50
2022/07/15 09:41:32;;;;;;;4.23;1.30;;;21.50;59.10;;;;;;5054316;28;20431;-50
2022/07/15 09:44:02;;;;;;;4.33;1.57;;;21.30;58.90;;;;;;5054264;28;20437;-50
2022/07/15 09:46:41;;;;;;;4.30;1.60;;;21.80;59.40;;;;;;5053791;28;20478;-50
2022/07/15 09:49:08;;;;;;;4.43;1.47;;;21.80;59.30;;;;;;5053377;28;20929;-48
2022/07/15 09:51:44;;;;;;;6.73;1.87;;;21.40;58.90;;;;;;5053701;28;20516;-49
2022/07/15 09:54:13;;;;;;;4.50;1.23;;;22.00;58.90;;;;;;5053765;28;20437;-49
2022/07/15 09:56:40;;;;;;;3.40;1.43;;;22.10;58.60;;;;;;5053716;28;21131;-50
2022/07/15 09:59:07;;;;;;;3.40;1.10;;;22.30;58.50;;;;;;5053384;28;20525;-49
2022/07/15 10:01:36;;;;;;;5.40;1.40;;;22.50;58.20;;;;;;5053476;28;20437;-50
2022/07/15 10:04:04;;;;;;;4.17;1.30;;;22.40;58.00;;;;;;5052977;28;20518;-49
2022/07/15 10:06:35;;;;;;;4.30;1.50;;;22.40;57.70;;;;;;5053118;28;20861;-49
2022/07/15 10:09:03;;;;;;;6.87;1.30;;;22.50;57.70;;;;;;5053193;28;20529;-49
2022/07/15 10:11:32;;;;;;;5.50;1.17;;;22.60;57.80;;;;;;5052872;28;20473;-49
2022/07/15 10:14:30;;;;;;;3.93;1.20;;;22.70;57.60;;;;;;5035360;28;20439;-49
2022/07/15 10:17:25;;;;;;;5.73;1.50;;;22.70;56.50;;;;;;5053117;28;20468;-50
2022/07/15 10:20:22;;;;;;;4.23;1.77;;;22.80;56.40;;;;;;5052899;28;20445;-49
2022/07/15 10:22:57;;;;;;;4.80;1.67;;;22.90;56.60;;;;;;5053267;28;20463;-50
2022/07/15 10:25:54;;;;;;;3.80;1.30;;;22.90;56.40;;;;;;5053003;28;20449;-50
2022/07/15 10:28:32;;;;;;;6.50;1.80;;;23.00;56.00;;;;;;5052818;28;20438;-50
2022/07/15 10:31:17;;;;;;;3.77;1.40;;;23.30;56.60;;;;;;5052669;28;20516;-49
2022/07/15 10:34:23;;;;;;;2.97;1.20;;;23.00;56.30;;;;;;5052675;28;20443;-49
2022/07/15 10:36:58;;;;;;;2.37;1.00;;;22.90;55.10;;;;;;5034714;28;20947;-50
2022/07/15 10:39:27;;;;;;;4.03;1.40;;;22.70;55.50;;;;;;5052230;28;20538;-50
2022/07/15 10:41:56;;;;;;;3.83;1.30;;;22.50;55.80;;;;;;5052688;28;20494;-50
2022/07/15 10:44:24;;;;;;;3.20;1.40;;;22.60;55.60;;;;;;5052657;28;20475;-50
2022/07/15 10:47:19;;;;;;;3.87;1.53;;;22.60;55.50;;;;;;5052392;28;20470;-49
2022/07/15 10:49:48;;;;;;;3.30;1.10;;;22.30;55.30;;;;;;5052128;28;20446;-49
2022/07/15 10:52:16;;;;;;;7.10;1.53;;;22.30;55.70;;;;;;5051948;28;20535;-51
2022/07/15 10:54:46;;;;;;;3.13;1.47;;;22.20;55.80;;;;;;5052306;28;20434;-49
2022/07/15 10:57:15;;;;;;;4.47;1.30;;;22.40;56.20;;;;;;5052151;28;20465;-49
2022/07/15 10:59:50;;;;;;;2.20;1.10;;;22.20;56.10;;;;;;5052501;28;20495;-49
2022/07/15 11:02:19;;;;;;;5.80;1.40;;;22.50;55.70;;;;;;5052593;28;20558;-49
2022/07/15 11:04:48;;;;;;;4.20;1.10;;;22.60;55.40;;;;;;5052301;28;20442;-52
2022/07/15 11:07:25;;;;;;;6.13;1.70;;;22.60;54.90;;;;;;5052080;28;20962;-48
2022/07/15 11:09:53;;;;;;;3.17;1.17;;;22.30;54.50;;;;;;5051829;28;20956;-49
2022/07/15 11:12:22;;;;;;;2.27;1.30;;;21.90;54.40;;;;;;5052209;28;20593;-49
2022/07/15 11:14:52;;;;;;;6.00;1.83;;;22.50;54.90;;;;;;5034353;28;20829;-50
2022/07/15 11:17:22;;;;;;;2.20;1.23;;;22.60;55.00;;;;;;5051811;28;20981;-49
2022/07/15 11:19:52;;;;;;;6.93;1.30;;;23.00;54.80;;;;;;5034211;28;20827;-49
2022/07/15 11:22:20;;;;;;;2.60;1.30;;;22.60;54.70;;;;;;5051698;28;20521;-49
2022/07/15 11:24:48;;;;;;;7.07;2.80;;;22.60;54.80;;;;;;5051914;28;20431;-49
2022/07/15 11:27:15;;;;;;;4.33;1.40;;;22.50;55.00;;;;;;5033961;28;20465;-49
2022/07/15 11:29:43;;;;;;;3.90;1.27;;;22.60;54.90;;;;;;5051481;28;20427;-49
2022/07/15 11:32:10;;;;;;;5.30;1.50;;;22.70;54.60;;;;;;5052008;28;20519;-49
2022/07/15 11:34:42;;;;;;;5.63;1.60;;;23.00;54.30;;;;;;5051867;28;20944;-49
2022/07/15 11:37:11;;;;;;;6.07;1.67;;;22.60;53.90;;;;;;5051772;28;20456;-49
2022/07/15 11:39:38;;;;;;;8.23;1.60;;;22.90;54.00;;;;;;5051586;28;20437;-49
2022/07/15 11:44:49;;;;;;;4.40;1.77;;;23.10;54.10;;;;;;5051941;28;20419;-49
2022/07/15 11:47:17;;;;;;;7.07;2.50;;;23.30;54.00;;;;;;5051509;28;20989;-50
2022/07/15 11:49:44;;;;;;;5.33;1.80;;;23.40;54.00;;;;;;5050563;28;20441;-49
2022/07/15 11:52:21;;;;;;;3.30;1.57;;;23.30;54.00;;;;;;5051576;28;20495;-50
2022/07/15 11:54:48;;;;;;;3.00;1.20;;;23.30;54.10;;;;;;5051635;28;20439;-50
2022/07/15 11:57:16;;;;;;;6.53;1.33;;;23.20;54.40;;;;;;5050957;28;20467;-49
2022/07/15 11:59:55;;;;;;;4.30;1.37;;;23.20;54.10;;;;;;5051029;28;20539;-50
2022/07/15 12:02:25;;;;;;;4.37;1.47;;;23.30;54.20;;;;;;5051222;28;20441;-49
2022/07/15 12:05:01;;;;;;;3.87;1.30;;;23.10;54.00;;;;;;5051385;28;20441;-49
2022/07/15 12:07:39;;;;;;;3.03;1.40;;;23.10;54.40;;;;;;5050511;28;20546;-50
2022/07/15 12:10:07;;;;;;;2.53;1.00;;;23.10;54.60;;;;;;5051473;28;20428;-52
2022/07/15 12:12:34;;;;;;;4.53;1.63;;;23.10;54.80;;;;;;5050932;28;20482;-49
2022/07/15 12:15:01;;;;;;;5.50;1.97;;;23.10;54.80;;;;;;5051129;28;20445;-49
2022/07/15 12:17:28;;;;;;;5.73;1.33;;;23.30;54.70;;;;;;5050751;28;20470;-50
2022/07/15 12:19:55;;;;;;;2.90;1.20;;;23.40;54.50;;;;;;5050784;28;20446;-50
2022/07/15 12:22:22;;;;;;;3.50;1.40;;;23.40;54.30;;;;;;5050843;28;20427;-50
2022/07/15 12:24:52;;;;;;;2.90;1.33;;;23.30;54.20;;;;;;5051169;28;20439;-50
2022/07/15 12:27:19;;;;;;;4.67;1.63;;;23.20;53.70;;;;;;5050850;28;20819;-49
2022/07/15 12:29:47;;;;;;;5.40;1.67;;;23.60;53.80;;;;;;5050809;28;20438;-50
2022/07/15 12:32:15;;;;;;;8.33;2.00;;;23.60;53.40;;;;;;5050645;28;20471;-50
2022/07/15 12:34:51;;;;;;;4.93;1.37;;;23.70;52.80;;;;;;5051128;28;20465;-50
2022/07/15 12:37:19;;;;;;;4.03;1.10;;;23.80;52.30;;;;;;5050563;28;20532;-50
2022/07/15 12:39:58;;;;;;;3.23;1.10;;;23.90;52.00;;;;;;5050569;28;20766;-50
2022/07/15 12:42:26;;;;;;;3.00;1.13;;;23.80;51.70;;;;;;5050728;28;20420;-49
2022/07/15 12:45:07;;;;;;;3.77;1.03;;;23.70;51.60;;;;;;5050795;28;20472;-50
2022/07/15 12:47:34;;;;;;;2.30;1.03;;;23.70;51.50;;;;;;5051088;28;20467;-49
2022/07/15 12:50:01;;;;;;;1.97;0.87;;;23.60;52.00;;;;;;5032263;28;20468;-50
2022/07/15 12:52:33;;;;;;;4.30;1.57;;;23.60;52.10;;;;;;5050896;28;20467;-50
2022/07/15 12:55:13;;;;;;;7.57;1.90;;;23.50;52.20;;;;;;5050621;28;20797;-51
2022/07/15 12:57:40;;;;;;;2.30;1.10;;;23.20;52.40;;;;;;5050461;28;20455;-51
2022/07/15 13:00:11;;;;;;;2.80;1.30;;;23.40;53.00;;;;;;5050801;28;20448;-49
2022/07/15 13:03:00;;;;;;;2.43;1.23;;;23.20;53.30;;;;;;5054618;28;20522;-50
2022/07/15 13:05:28;;;;;;;3.80;1.13;;;23.10;53.50;;;;;;5054592;28;20525;-49
2022/07/15 13:07:55;;;;;;;5.93;1.50;;;23.10;53.70;;;;;;5055001;28;20462;-50
2022/07/15 13:10:23;;;;;;;2.77;0.90;;;23.00;53.70;;;;;;5054512;28;20435;-49